createdAt,value
2017-12-01T00:01:22.370Z,2.29
2017-12-01T00:03:49.862Z,2.33
2017-12-01T00:06:17.407Z,2.19
2017-12-01T00:08:44.873Z,2.14
2017-12-01T00:11:12.348Z,2.25
2017-12-01T00:13:39.817Z,2.22
2017-12-01T00:16:07.297Z,2.18
2017-12-01T00:18:34.768Z,2.13
2017-12-01T00:21:02.245Z,1.98
2017-12-01T00:23:29.708Z,1.83
2017-12-01T00:25:57.179Z,1.73
2017-12-01T00:28:24.661Z,1.72
2017-12-01T00:30:52.153Z,1.81
2017-12-01T00:33:19.622Z,1.92
2017-12-01T00:35:47.118Z,1.96
2017-12-01T00:38:14.578Z,2.03
2017-12-01T00:40:42.037Z,1.97
2017-12-01T00:43:09.557Z,1.91
2017-12-01T00:45:37.027Z,1.82
2017-12-01T00:48:04.502Z,1.80
2017-12-01T00:50:32.007Z,1.91
2017-12-01T00:52:59.476Z,1.86
2017-12-01T00:55:27.027Z,1.82
2017-12-01T00:57:54.544Z,1.76
2017-12-01T01:00:21.999Z,1.86
2017-12-01T01:02:49.475Z,1.74
2017-12-01T01:05:16.968Z,1.76
2017-12-01T01:07:44.448Z,1.71
2017-12-01T01:10:11.919Z,1.54
2017-12-01T01:12:39.404Z,1.64
2017-12-01T01:15:06.905Z,1.58
2017-12-01T01:17:34.423Z,1.73
2017-12-01T01:20:01.925Z,1.53
2017-12-01T01:22:29.402Z,1.63
2017-12-01T01:24:56.884Z,1.71
2017-12-01T01:27:24.495Z,1.61
2017-12-01T01:29:51.960Z,1.73
2017-12-01T01:32:20.171Z,1.52
2017-12-01T01:34:47.640Z,1.46
2017-12-01T01:37:15.880Z,1.26
2017-12-01T01:39:43.432Z,1.16
2017-12-01T01:42:10.911Z,1.07
2017-12-01T01:44:38.403Z,1.25
2017-12-01T01:47:05.880Z,1.47
2017-12-01T01:49:33.348Z,1.43
2017-12-01T01:52:00.873Z,1.27
2017-12-01T01:54:28.360Z,1.19
2017-12-01T01:56:55.838Z,1.08
2017-12-01T01:59:23.354Z,1.08
2017-12-01T02:01:50.831Z,1.10
2017-12-01T02:04:18.331Z,1.03
2017-12-01T02:06:45.885Z,1.04
2017-12-01T02:09:13.328Z,0.96
2017-12-01T02:11:40.810Z,0.85
2017-12-01T02:14:08.354Z,0.70
2017-12-01T02:16:35.820Z,0.75
2017-12-01T02:19:03.334Z,0.77
2017-12-01T02:21:30.854Z,0.79
2017-12-01T02:23:58.343Z,0.99
2017-12-01T02:26:25.818Z,0.98
2017-12-01T02:28:53.275Z,0.91
2017-12-01T02:31:20.778Z,0.78
2017-12-01T02:33:48.247Z,0.71
2017-12-01T02:36:15.723Z,0.61
2017-12-01T02:38:43.225Z,0.59
2017-12-01T02:41:10.670Z,0.63
2017-12-01T02:43:38.156Z,0.60
2017-12-01T02:46:05.640Z,0.58
2017-12-01T02:48:33.116Z,0.63
2017-12-01T02:51:00.612Z,0.67
2017-12-01T02:53:28.087Z,0.64
2017-12-01T02:55:55.590Z,0.60
2017-12-01T02:58:23.142Z,0.59
2017-12-01T03:00:50.624Z,0.79
2017-12-01T03:03:18.170Z,0.95
2017-12-01T03:05:45.653Z,1.11
2017-12-01T03:08:13.299Z,1.24
2017-12-01T03:10:40.758Z,1.41
2017-12-01T03:13:08.234Z,1.40
2017-12-01T03:15:35.711Z,1.46
2017-12-01T03:18:03.233Z,1.39
2017-12-01T03:20:30.717Z,1.33
2017-12-01T03:22:58.194Z,1.24
2017-12-01T03:25:25.682Z,1.19
2017-12-01T03:27:53.196Z,1.16
2017-12-01T03:30:20.715Z,1.23
2017-12-01T03:32:48.183Z,1.25
2017-12-01T03:35:15.647Z,1.23
2017-12-01T03:37:43.129Z,1.15
2017-12-01T03:40:10.622Z,1.06
2017-12-01T03:42:38.102Z,0.91
2017-12-01T03:45:05.576Z,0.94
2017-12-01T03:47:33.047Z,0.88
2017-12-01T03:50:00.523Z,0.79
2017-12-01T03:52:28.016Z,0.75
2017-12-01T03:54:55.519Z,0.70
2017-12-01T03:57:22.973Z,0.69
2017-12-01T03:59:50.494Z,0.51
2017-12-01T04:02:17.966Z,0.46
2017-12-01T04:04:45.443Z,0.31
2017-12-01T04:07:12.923Z,0.22
2017-12-01T04:09:40.375Z,0.19
2017-12-01T04:12:07.868Z,0.24
2017-12-01T04:14:35.343Z,0.28
2017-12-01T04:17:02.806Z,0.20
2017-12-01T04:19:30.266Z,0.08
2017-12-01T04:21:57.730Z,0.05
2017-12-01T04:24:25.210Z,0.26
2017-12-01T04:26:52.717Z,0.37
2017-12-01T04:29:20.199Z,0.32
2017-12-01T04:31:47.664Z,0.39
2017-12-01T04:34:15.163Z,0.31
2017-12-01T04:36:42.652Z,0.33
2017-12-01T04:39:10.832Z,0.17
2017-12-01T04:41:38.346Z,0.01
2017-12-01T04:44:05.803Z,-0.13
2017-12-01T04:46:33.293Z,-0.28
2017-12-01T04:49:00.767Z,-0.38
2017-12-01T04:51:28.252Z,-0.45
2017-12-01T04:53:55.786Z,-0.53
2017-12-01T04:56:23.258Z,-0.60
2017-12-01T04:58:50.727Z,-0.61
2017-12-01T05:01:18.208Z,-0.64
2017-12-01T05:03:45.682Z,-0.67
2017-12-01T05:06:13.192Z,-0.73
2017-12-01T05:08:40.656Z,-0.77
2017-12-01T05:11:08.144Z,-0.79
2017-12-01T05:13:35.647Z,-0.78
2017-12-01T05:16:03.120Z,-0.77
2017-12-01T05:18:30.615Z,-0.80
2017-12-01T05:20:58.114Z,-0.87
2017-12-01T05:23:25.627Z,-0.89
2017-12-01T05:25:53.161Z,-0.88
2017-12-01T05:28:23.314Z,-0.89
2017-12-01T05:30:50.772Z,-0.93
2017-12-01T05:33:18.247Z,-0.83
2017-12-01T05:35:45.761Z,-0.91
2017-12-01T05:38:13.240Z,-1.00
2017-12-01T05:40:40.732Z,-1.08
2017-12-01T05:43:08.223Z,-1.02
2017-12-01T05:45:35.696Z,-0.99
2017-12-01T05:48:03.176Z,-1.02
2017-12-01T05:50:30.700Z,-0.91
2017-12-01T05:52:58.170Z,-0.94
2017-12-01T05:55:25.646Z,-1.02
2017-12-01T05:57:53.136Z,-1.08
2017-12-01T06:00:20.622Z,-1.14
2017-12-01T06:02:48.099Z,-1.07
2017-12-01T06:05:15.609Z,-1.00
2017-12-01T06:07:43.095Z,-1.00
2017-12-01T06:10:10.571Z,-1.03
2017-12-01T06:12:38.058Z,-1.09
2017-12-01T06:15:05.527Z,-1.11
2017-12-01T06:17:32.996Z,-1.09
2017-12-01T06:20:00.516Z,-1.13
2017-12-01T06:22:27.971Z,-1.19
2017-12-01T06:24:55.512Z,-1.23
2017-12-01T06:27:23.104Z,-1.19
2017-12-01T06:29:50.579Z,-1.10
2017-12-01T06:32:18.082Z,-0.98
2017-12-01T06:34:45.562Z,-1.06
2017-12-01T06:37:13.024Z,-1.13
2017-12-01T06:39:40.532Z,-1.17
2017-12-01T06:42:08.019Z,-1.03
2017-12-01T06:44:35.547Z,-0.92
2017-12-01T06:47:03.022Z,-0.84
2017-12-01T06:49:30.492Z,-0.71
2017-12-01T06:51:57.965Z,-0.64
2017-12-01T06:54:25.492Z,-0.53
2017-12-01T06:56:53.015Z,-0.52
2017-12-01T06:59:20.478Z,-0.47
2017-12-01T07:01:48.719Z,-0.41
2017-12-01T07:04:16.267Z,-0.30
2017-12-01T07:06:43.759Z,-0.29
2017-12-01T07:09:17.581Z,-0.23
2017-12-01T07:11:45.497Z,-0.20
2017-12-01T07:14:13.849Z,-0.10
2017-12-01T07:16:41.891Z,-0.12
2017-12-01T07:19:09.999Z,-0.11
2017-12-01T07:21:40.885Z,-0.16
2017-12-01T07:24:10.985Z,-0.16
2017-12-01T07:26:50.951Z,-0.10
2017-12-01T07:29:19.466Z,-0.11
2017-12-01T07:31:48.760Z,-0.07
2017-12-01T07:34:18.108Z,-0.03
2017-12-01T07:36:45.610Z,0.01
2017-12-01T07:39:13.066Z,0.06
2017-12-01T07:41:40.578Z,0.09
2017-12-01T07:44:18.148Z,0.11
2017-12-01T07:46:45.691Z,0.16
2017-12-01T07:49:13.137Z,0.22
2017-12-01T07:51:40.607Z,0.24
2017-12-01T07:54:08.102Z,0.33
2017-12-01T07:56:35.587Z,0.31
2017-12-01T07:59:03.090Z,0.37
2017-12-01T08:01:30.592Z,0.36
2017-12-01T08:03:58.048Z,0.39
2017-12-01T08:06:25.527Z,0.50
2017-12-01T08:08:52.987Z,0.61
2017-12-01T08:11:20.512Z,0.59
2017-12-01T08:13:47.995Z,0.60
2017-12-01T08:16:27.108Z,0.62
2017-12-01T08:19:02.475Z,0.66
2017-12-01T08:21:41.734Z,0.73
2017-12-01T08:24:21.335Z,0.81
2017-12-01T08:26:48.836Z,0.85
2017-12-01T08:29:16.312Z,0.92
2017-12-01T08:31:43.814Z,1.00
2017-12-01T08:34:11.312Z,1.12
2017-12-01T08:36:38.764Z,1.17
2017-12-01T08:39:06.218Z,1.25
2017-12-01T08:41:33.759Z,1.28
2017-12-01T08:44:01.236Z,1.36
2017-12-01T08:46:28.698Z,1.46
2017-12-01T08:48:56.199Z,1.51
2017-12-01T08:51:23.669Z,1.61
2017-12-01T08:53:51.151Z,1.73
2017-12-01T08:56:18.708Z,1.89
2017-12-01T08:58:46.125Z,2.01
2017-12-01T09:01:13.598Z,2.14
2017-12-01T09:03:41.052Z,2.28
2017-12-01T09:06:08.531Z,2.50
2017-12-01T09:08:35.979Z,2.61
2017-12-01T09:11:03.446Z,2.72
2017-12-01T09:13:30.971Z,2.75
2017-12-01T09:15:58.458Z,2.67
2017-12-01T09:18:25.925Z,2.75
2017-12-01T09:20:53.381Z,2.88
2017-12-01T09:23:20.920Z,2.96
2017-12-01T09:25:48.381Z,3.01
2017-12-01T09:28:15.847Z,3.18
2017-12-01T09:30:43.351Z,3.27
2017-12-01T09:33:10.831Z,3.41
2017-12-01T09:35:38.303Z,3.59
2017-12-01T09:38:05.795Z,3.68
2017-12-01T09:40:33.333Z,3.72
2017-12-01T09:43:00.812Z,3.71
2017-12-01T09:45:28.261Z,3.67
2017-12-01T09:47:55.720Z,3.72
2017-12-01T09:50:23.184Z,3.71
2017-12-01T09:52:50.712Z,3.66
2017-12-01T09:55:18.192Z,3.60
2017-12-01T09:57:45.664Z,3.61
2017-12-01T10:00:13.185Z,3.67
2017-12-01T10:02:40.706Z,3.63
2017-12-01T10:05:08.152Z,3.70
2017-12-01T10:07:35.620Z,3.78
2017-12-01T10:10:03.096Z,3.81
2017-12-01T10:12:30.563Z,3.88
2017-12-01T10:14:58.021Z,3.91
2017-12-01T10:17:25.502Z,3.99
2017-12-01T10:19:52.950Z,4.08
2017-12-01T10:22:20.417Z,4.13
2017-12-01T10:24:47.875Z,4.17
2017-12-01T10:27:15.406Z,4.17
2017-12-01T10:29:42.915Z,4.19
2017-12-01T10:32:10.376Z,4.24
2017-12-01T10:34:37.840Z,4.28
2017-12-01T10:37:05.318Z,4.29
2017-12-01T10:39:32.767Z,4.39
2017-12-01T10:42:00.227Z,4.48
2017-12-01T10:44:27.671Z,4.54
2017-12-01T10:46:55.135Z,4.59
2017-12-01T10:49:22.650Z,4.66
2017-12-01T10:51:50.104Z,4.66
2017-12-01T10:54:17.568Z,4.62
2017-12-01T10:56:45.042Z,4.59
2017-12-01T10:59:12.521Z,4.56
2017-12-01T11:01:39.984Z,4.67
2017-12-01T11:04:07.479Z,4.73
2017-12-01T11:06:34.954Z,4.57
2017-12-01T11:09:02.412Z,4.57
2017-12-01T11:11:29.905Z,4.68
2017-12-01T11:13:57.366Z,4.71
2017-12-01T11:16:24.825Z,4.75
2017-12-01T11:18:52.299Z,4.80
2017-12-01T11:21:19.743Z,4.88
2017-12-01T11:23:47.205Z,4.86
2017-12-01T11:26:14.720Z,4.88
2017-12-01T11:28:42.175Z,4.84
2017-12-01T11:31:09.637Z,4.87
2017-12-01T11:33:37.095Z,4.93
2017-12-01T11:36:04.550Z,4.93
2017-12-01T11:38:31.999Z,4.92
2017-12-01T11:40:59.470Z,5.00
2017-12-01T11:43:26.986Z,5.05
2017-12-01T11:45:54.480Z,4.93
2017-12-01T11:48:21.962Z,4.98
2017-12-01T11:50:49.428Z,4.95
2017-12-01T11:53:16.897Z,4.89
2017-12-01T11:55:44.376Z,4.91
2017-12-01T11:58:11.830Z,4.98
2017-12-01T12:00:40.903Z,5.00
2017-12-01T12:03:08.367Z,5.01
2017-12-01T12:05:36.114Z,4.97
2017-12-01T12:08:03.573Z,5.03
2017-12-01T12:10:31.036Z,5.15
2017-12-01T12:12:58.505Z,5.13
2017-12-01T12:15:25.968Z,5.17
2017-12-01T12:17:53.430Z,5.10
2017-12-01T12:20:20.886Z,5.15
2017-12-01T12:22:48.347Z,5.10
2017-12-01T12:25:15.818Z,5.01
2017-12-01T12:27:43.318Z,5.05
2017-12-01T12:30:10.816Z,5.08
2017-12-01T12:32:38.311Z,5.01
2017-12-01T12:35:05.767Z,5.01
2017-12-01T12:37:33.221Z,5.03
2017-12-01T12:40:00.682Z,5.04
2017-12-01T12:42:28.151Z,5.02
2017-12-01T12:44:55.607Z,4.96
2017-12-01T12:47:23.135Z,4.91
2017-12-01T12:49:50.744Z,4.94
2017-12-01T12:52:18.191Z,4.83
2017-12-01T12:54:45.660Z,4.87
2017-12-01T12:57:13.156Z,4.91
2017-12-01T12:59:40.611Z,4.91
2017-12-01T13:02:08.092Z,4.85
2017-12-01T13:04:35.650Z,4.75
2017-12-01T13:07:03.118Z,4.56
2017-12-01T13:09:30.663Z,4.42
2017-12-01T13:11:58.131Z,4.22
2017-12-01T13:14:25.610Z,4.15
2017-12-01T13:16:53.077Z,4.27
2017-12-01T13:19:20.578Z,4.26
2017-12-01T13:21:48.069Z,4.40
2017-12-01T13:24:15.605Z,4.39
2017-12-01T13:26:43.103Z,4.37
2017-12-01T13:29:10.584Z,4.33
2017-12-01T13:31:38.076Z,4.33
2017-12-01T13:34:05.672Z,4.36
2017-12-01T13:36:33.152Z,4.37
2017-12-01T13:39:00.615Z,4.25
2017-12-01T13:41:28.101Z,4.28
2017-12-01T13:43:55.558Z,4.24
2017-12-01T13:46:23.803Z,4.17
2017-12-01T13:48:51.269Z,4.11
2017-12-01T13:51:18.831Z,4.07
2017-12-01T13:53:46.302Z,4.25
2017-12-01T13:56:13.847Z,4.39
2017-12-01T13:58:41.320Z,4.55
2017-12-01T14:01:08.869Z,4.78
2017-12-01T14:03:36.314Z,5.12
2017-12-01T14:06:03.785Z,5.34
2017-12-01T14:08:31.263Z,5.60
2017-12-01T14:10:58.748Z,5.60
2017-12-01T14:13:26.227Z,5.79
2017-12-01T14:15:53.701Z,5.78
2017-12-01T14:18:21.294Z,5.75
2017-12-01T14:20:48.740Z,5.75
2017-12-01T14:23:16.210Z,5.66
2017-12-01T14:25:43.672Z,5.46
2017-12-01T14:28:11.176Z,5.24
2017-12-01T14:30:38.645Z,4.94
2017-12-01T14:33:06.096Z,4.51
2017-12-01T14:35:33.571Z,4.32
2017-12-01T14:38:01.081Z,4.10
2017-12-01T14:40:28.666Z,3.87
2017-12-01T14:42:56.139Z,3.58
2017-12-01T14:45:23.627Z,3.23
2017-12-01T14:47:51.125Z,2.90
2017-12-01T14:50:19.283Z,2.67
2017-12-01T14:52:46.764Z,2.48
2017-12-01T14:55:14.288Z,2.26
2017-12-01T14:57:41.753Z,2.15
2017-12-01T15:00:09.232Z,2.05
2017-12-01T15:02:36.748Z,1.99
2017-12-01T15:05:04.208Z,1.88
2017-12-01T15:07:31.676Z,1.75
2017-12-01T15:09:59.116Z,1.63
2017-12-01T15:12:26.600Z,1.56
2017-12-01T15:14:54.071Z,1.33
2017-12-01T15:17:21.561Z,1.21
2017-12-01T15:19:49.052Z,1.13
2017-12-01T15:22:16.618Z,1.02
2017-12-01T15:24:44.105Z,1.13
2017-12-01T15:27:12.514Z,0.92
2017-12-01T15:29:39.996Z,0.74
2017-12-01T15:32:07.497Z,0.57
2017-12-01T15:34:34.999Z,0.50
2017-12-01T15:37:02.455Z,0.41
2017-12-01T15:39:29.932Z,0.37
2017-12-01T15:41:57.454Z,0.35
2017-12-01T15:44:24.927Z,0.33
2017-12-01T15:46:52.417Z,0.24
2017-12-01T15:49:20.871Z,0.14
2017-12-01T15:51:48.340Z,0.05
2017-12-01T15:54:15.863Z,-0.01
2017-12-01T15:56:43.341Z,-0.08
2017-12-01T15:59:10.855Z,-0.07
2017-12-01T16:01:38.341Z,0.04
2017-12-01T16:04:05.898Z,0.09
2017-12-01T16:06:33.419Z,0.07
2017-12-01T16:09:00.911Z,0.15
2017-12-01T16:11:28.407Z,0.18
2017-12-01T16:13:55.932Z,0.33
2017-12-01T16:16:23.412Z,0.54
2017-12-01T16:18:50.982Z,0.54
2017-12-01T16:21:18.572Z,0.61
2017-12-01T16:23:46.171Z,0.67
2017-12-01T16:26:13.713Z,0.69
2017-12-01T16:28:41.211Z,0.71
2017-12-01T16:31:08.753Z,0.74
2017-12-01T16:33:36.374Z,0.80
2017-12-01T16:36:03.857Z,0.86
2017-12-01T16:38:31.336Z,0.91
2017-12-01T16:40:58.812Z,1.02
2017-12-01T16:43:26.329Z,1.02
2017-12-01T16:45:54.910Z,1.08
2017-12-01T16:48:22.431Z,1.19
2017-12-01T16:50:50.254Z,1.11
2017-12-01T16:53:17.730Z,1.05
2017-12-01T16:55:45.242Z,0.97
2017-12-01T16:58:12.733Z,0.82
2017-12-01T17:00:40.314Z,0.75
2017-12-01T17:03:08.414Z,0.65
2017-12-01T17:05:35.962Z,0.65
2017-12-01T17:08:03.502Z,0.80
2017-12-01T17:10:31.065Z,0.71
2017-12-01T17:12:58.561Z,0.62
2017-12-01T17:15:26.019Z,0.58
2017-12-01T17:17:53.516Z,0.50
2017-12-01T17:20:21.115Z,0.49
2017-12-01T17:22:48.636Z,0.58
2017-12-01T17:25:16.146Z,0.52
2017-12-01T17:27:43.689Z,0.47
2017-12-01T17:30:11.184Z,0.66
2017-12-01T17:32:38.708Z,0.62
2017-12-01T17:35:06.188Z,0.60
2017-12-01T17:37:33.639Z,0.60
2017-12-01T17:40:01.149Z,0.52
2017-12-01T17:42:28.640Z,0.42
2017-12-01T17:44:56.100Z,0.48
2017-12-01T17:47:23.587Z,0.56
2017-12-01T17:49:51.104Z,0.51
2017-12-01T17:52:18.604Z,0.47
2017-12-01T17:54:46.059Z,0.45
2017-12-01T17:57:14.539Z,0.48
2017-12-01T17:59:42.040Z,0.54
2017-12-01T18:02:09.595Z,0.62
2017-12-01T18:04:37.079Z,0.64
2017-12-01T18:07:04.555Z,0.55
2017-12-01T18:09:32.035Z,0.57
2017-12-01T18:11:59.534Z,0.59
2017-12-01T18:14:27.003Z,0.53
2017-12-01T18:16:54.509Z,0.57
2017-12-01T18:19:21.992Z,0.54
2017-12-01T18:21:49.515Z,0.76
2017-12-01T18:24:16.987Z,0.68
2017-12-01T18:26:44.551Z,0.64
2017-12-01T18:29:12.037Z,0.62
2017-12-01T18:31:39.527Z,0.61
2017-12-01T18:34:07.083Z,0.66
2017-12-01T18:36:34.585Z,0.78
2017-12-01T18:39:02.085Z,0.80
2017-12-01T18:41:29.559Z,0.80
2017-12-01T18:43:57.060Z,0.81
2017-12-01T18:46:24.530Z,0.77
2017-12-01T18:48:52.035Z,0.82
2017-12-01T18:51:19.527Z,0.92
2017-12-01T18:53:47.024Z,0.94
2017-12-01T18:56:14.512Z,0.92
2017-12-01T18:58:42.010Z,0.88
2017-12-01T19:01:09.480Z,0.90
2017-12-01T19:03:36.986Z,0.97
2017-12-01T19:06:04.455Z,1.04
2017-12-01T19:08:31.966Z,1.07
2017-12-01T19:10:59.457Z,1.00
2017-12-01T19:13:27.013Z,0.95
2017-12-01T19:15:54.478Z,0.97
2017-12-01T19:18:22.066Z,1.06
2017-12-01T19:20:49.600Z,1.06
2017-12-01T19:23:17.125Z,1.06
2017-12-01T19:25:44.637Z,1.16
2017-12-01T19:28:12.164Z,1.13
2017-12-01T19:30:39.689Z,1.24
2017-12-01T19:33:07.253Z,1.11
2017-12-01T19:35:34.769Z,1.12
2017-12-01T19:38:02.252Z,1.02
2017-12-01T19:40:29.837Z,0.86
2017-12-01T19:42:57.357Z,0.75
2017-12-01T19:45:24.823Z,0.64
2017-12-01T19:47:52.312Z,0.66
2017-12-01T19:50:19.816Z,0.62
2017-12-01T19:52:47.316Z,0.55
2017-12-01T19:55:14.834Z,0.45
2017-12-01T19:57:42.319Z,0.35
2017-12-01T20:00:09.874Z,0.29
2017-12-01T20:02:37.377Z,0.27
2017-12-01T20:05:04.865Z,0.34
2017-12-01T20:07:32.384Z,0.42
2017-12-01T20:09:59.858Z,0.48
2017-12-01T20:12:27.359Z,0.46
2017-12-01T20:14:54.844Z,0.44
2017-12-01T20:17:22.355Z,0.48
2017-12-01T20:19:50.093Z,0.45
2017-12-01T20:22:17.601Z,0.45
2017-12-01T20:24:45.064Z,0.40
2017-12-01T20:27:12.567Z,0.33
2017-12-01T20:29:40.095Z,0.30
2017-12-01T20:32:07.568Z,0.35
2017-12-01T20:34:35.199Z,0.34
2017-12-01T20:37:02.699Z,0.27
2017-12-01T20:39:30.241Z,0.21
2017-12-01T20:41:57.720Z,0.16
2017-12-01T20:44:25.265Z,0.20
2017-12-01T20:46:52.746Z,0.21
2017-12-01T20:49:20.256Z,0.33
2017-12-01T20:51:47.753Z,0.32
2017-12-01T20:54:15.268Z,0.39
2017-12-01T20:56:42.831Z,0.32
2017-12-01T20:59:10.314Z,0.31
2017-12-01T21:01:37.806Z,0.34
2017-12-01T21:04:05.376Z,0.33
2017-12-01T21:06:32.869Z,0.27
2017-12-01T21:09:00.350Z,0.34
2017-12-01T21:11:27.862Z,0.42
2017-12-01T21:13:55.350Z,0.44
2017-12-01T21:16:24.582Z,0.38
2017-12-01T21:18:52.116Z,0.35
2017-12-01T21:21:22.910Z,0.23
2017-12-01T21:39:55.729Z,0.11
2017-12-01T21:42:23.734Z,0.06
2017-12-01T21:44:51.227Z,0.04
2017-12-01T21:47:18.723Z,0.01
2017-12-01T21:49:46.211Z,0.02
2017-12-01T21:52:13.706Z,-0.03
2017-12-01T21:54:41.190Z,-0.11
2017-12-01T21:57:09.165Z,-0.23
2017-12-01T21:59:36.895Z,-0.17
2017-12-01T22:02:04.407Z,-0.24
2017-12-01T22:04:32.486Z,-0.38
2017-12-01T22:06:59.988Z,-0.37
2017-12-01T22:09:27.467Z,-0.34
2017-12-01T22:11:54.945Z,-0.30
2017-12-01T22:14:22.542Z,-0.31
2017-12-01T22:16:50.025Z,-0.05
2017-12-01T22:19:17.511Z,-0.06
2017-12-01T22:21:45.047Z,-0.03
2017-12-01T22:24:12.525Z,-0.12
2017-12-01T22:29:13.641Z,-0.27
2017-12-01T22:31:41.135Z,-0.26
2017-12-01T22:34:08.647Z,-0.31
2017-12-01T22:36:36.418Z,-0.32
2017-12-01T22:39:04.001Z,-0.37
2017-12-01T22:44:03.638Z,-0.41
2017-12-01T22:46:31.142Z,-0.50
2017-12-01T22:48:58.622Z,-0.57
2017-12-01T22:51:26.106Z,-0.60
2017-12-01T22:53:53.649Z,-0.58
2017-12-01T22:56:21.142Z,-0.47
2017-12-01T22:58:48.604Z,-0.52
2017-12-01T23:01:16.147Z,-0.44
2017-12-01T23:03:43.639Z,-0.36
2017-12-01T23:06:11.174Z,-0.35
2017-12-01T23:08:38.656Z,-0.36
2017-12-01T23:11:06.110Z,-0.29
2017-12-01T23:13:33.561Z,-0.36
2017-12-01T23:16:01.028Z,-0.35
2017-12-01T23:18:28.515Z,-0.34
2017-12-01T23:20:56.063Z,-0.24
2017-12-01T23:23:23.588Z,-0.27
2017-12-01T23:25:53.589Z,-0.29
2017-12-01T23:28:21.075Z,-0.23
2017-12-01T23:30:48.942Z,-0.25
2017-12-01T23:33:16.464Z,-0.22
2017-12-01T23:35:43.960Z,-0.20
2017-12-01T23:38:11.417Z,-0.11
2017-12-01T23:40:39.355Z,-0.09
2017-12-01T23:43:07.379Z,-0.04
2017-12-01T23:45:36.413Z,-0.05
2017-12-01T23:48:04.792Z,0.10
2017-12-01T23:50:32.261Z,0.13
2017-12-01T23:52:59.782Z,0.22
2017-12-01T23:55:27.267Z,0.15
2017-12-01T23:57:54.812Z,0.08
